Terminal Aerodrome Forecast
Issued by NWS

Home | Current Version | Previous Version | Text Only | Print | Product List | Glossary On
Versions: 1 2 3 4 5 6 7 8 9 10 11 12 13 14
000
FTUS42 TJSJ 121700
TAFJMZ
TAF
TJMZ 121722Z 1218/1318 26010KT P6SM VCTS BKN030CB
      TEMPO 1218/1222 VRB10G20KT 6SM TSRA BKN030CB
     FM122230 08008KT P6SM SCT030
     FM131500 25008KT P6SM SCT030
      AMD NOT SKED 1223/1316=

USA.gov is the U.S. government's official web portal to all federal, state and local government web resources and services.